メインページ
METAR-TAF:

METAR-TAF

空港 :

テッド・スティーブンス・アンカレッジ国際空港

アンカレッジ, アラスカ州, アメリカ合衆国

緯度: 61-10-28N, 経度: 149-59-46W, 海抜: 44m

現時点の気象観測

当レポートは29分前の22:53(UTC)に作成
の風 20kt、最大28ktの突風を伴う
気温 13°C
湿度 67%
気圧 1003 hPa
視程: 16.1km
高度2200ftの雲はほとんどない
高度5000ftの雲は散在している, 積乱雲.
高度9000ftの千切れ雲あり
高度20000ftの千切れ雲あり

METAR: PANC 242253Z 18020G28KT 10SM FEW022 SCT050CB BKN090 BKN200 13/07 A2963 RMK AO2 PK WND 16032/2238 RAE15 TSE13 SLP033 OCNL LTGCG DSNT NE CB E-DSNT NE MOV N VCSH N-E P0002 T01280072

時間: 15:22 (23:22 UTC)

予報

当レポートは1時間47分前の21:35(UTC)に作成
予報は24日の 22時(UTC)から 25日の 24時(UTC)まで有効
南/南西の風 20kt、最大30ktの突風を伴う
視程: 10km
高度6000ftの雲は散在している, 積乱雲.
高度8000ftの千切れ雲あり
激しい雷雨, 小雨
24日の 2230時(UTC)から
南西の風 20kt、最大30ktの突風を伴う
視程: 10km
高度4000ftの雲は散在している
高度6000ftの千切れ雲あり
弱いにわか雨
25日の 0100時(UTC)から
の風 25kt、最大35ktの突風を伴う
視程: 10km
高度3000ftの雲は散在している
高度5000ftの曇り
近辺でにわか雨
25日の 1000時(UTC)から
の風 15kt、最大25ktの突風を伴う
視程: 10km
高度5000ftの雲は散在している
高度9000ftの千切れ雲あり
25日の 1500時(UTC)から
南/南西の風 8kt
視程: 10km
高度9000ftの千切れ雲あり

TAF: PANC 242135Z 2422/2524 21020G30KT P6SM -TSRA SCT060CB BKN080 FM242230 22020G30KT P6SM -SHRA SCT040 BKN060 FM250100 18025G35KT P6SM VCSH SCT030 OVC050 FM251000 18015G25KT P6SM SCT050 BKN090 FM251500 20008KT P6SM BKN090

4,000以上の空港の気象観測と天気予報(METAR報とTAF報)

利用可能な観測所は地図上に黄色い丸と赤い丸で示す。

丸の上にカーソルを重ねると観測所名を参照できる。

次にクリックすると気象観測と天気予報を参照できる。

マップの切り替え:黒色「×」印の緑ボタンをクリックして拡大、「-」印の緑ボタンをクリックして縮小、緑色の三角印をクリックして隣りの地図に切り替え


METAR-TAF: